Tadoule Lake Airport

CYBQ · 加拿大

METAR CYBQ · Tadoule Lake Airport

18 五月 18:00 LT
39m
罗盘
风向 的 风向 060° Tadoule Lake Airport 7/25
风向 到 风: 14 kt, 阵阵 25 kt, 4 beaufort

14 kt

3 kt
改变
0 ft 1.000 2.000 3.000 4.000 5.000
Cloud Cloud Cloud Cloud Cloud Cloud
BKN 2.000
METAR CYBQ 182300Z AUTO 06014G25KT 9SM BKN020 07/03 A2995 RMK SLP161

METAR Tadoule Lake Airport - CYBQ/XTL

该字段位于加拿大中。 该机场位于纬度58,70610和经度-98,51220。 该机场有一条跑道: 7/25. 本场的ICAO机场代码为CYBQ。 该机场的IATA代码为XTL。 机场在Winnipeg FIR中。

该航空气象观测是针对Tadoule Lake Airport在2024年5月18日 18:00, 当地时间进行的。

机场观察

风向为060°,速度为14 kt。 已测得25 kt的阵风。

可见度为9 mi。

有碎云在2.000 ft的高度。 破损或更高的上限为2.000 ft。

温度为7 °C,阵风为2 °C。 露点为3 °C,相对湿度为76%。 海平面上的气压为29,95 inHg (QNH)。

白天

今天,太阳从04:56升起,在22:04降落。 这适用于Tadoule Lake Airport,世界夏令时可能有所不同。 当地时间与世界标准时间之间的时差为-5 小时。 夏令时目前正在进行中。

公司介绍

我们没有关于这个机场的公司信息。

体会

到Vliegles.nl去找飞行课程,跳伞和其他飞行体验。 浏览页面,了解Tadoule Lake Airport附近所有可用的活动。 你也可以使用搜索功能来寻找你所在地附近的特定飞行课程、跳伞或其他飞行体验。

跑道

Id 标题 侧风 逆风 侧风 %
7/25 072°-252° 3-5 kt 14-24 kt 21 %

逆风成分最大的方向会被突出显示,并用于横风计算。 这并不一定意味着这个方向在使用。

乌云

2.000 ft BKN 碎云

温度 & 天气

温度 7 °C
露点 3 °C
相对湿度 76%
风寒 2 °C
Kp-index 1 (0-9)

评论

SLP161海平面压力为30,01 inHg (30,01 inHg)

白天

日出
04:56
中午
13:30
日落
22:04 (3:25)

小工具

你想在你的网站上有一个关于Tadoule Lake Airport的当前航空天气(METAR)的小部件吗?

显示HTML代码
报告变更